Alachua, Florida
Current Conditions -  °F | °C
As of 6:53 AM on Tuesday 27 Jan 2015 (Local Time) from KGNV Reporting Station
Clear Clear  
Wind Chill: 32°   Ceiling: Unl
Heat Index: 37°   Visibility: 10mi
Dew Point: 34°   Wind: 7mph
Humidity: 89%   Direction: 250°WSW
Pressure: 30"   Gusts: NA
Location:  29.78°N, 82.48°W
Report Text: KGNV 271153Z 25006KT 10SM CLR 03/01 A3000 RMK AO2 SLP158 T00280011 10061 20028 51012
Loading
Personal Weather Stations






























Interactive Weather Map New forecast layout! Learn more

10-Day Weather Forecast

Advertisements
Track Severe Weather on mobile